Time;durP1;ratioP1;P1;durP2;ratioP2;P2;SDS_P1;SDS_P2;PMS_P1;PMS_P2;Temp;Humidity;BMP_temperature;BMP_pressure;BME280_temperature;BME280_humidity;BME280_pressure;Samples;Min_cycle;Max_cycle;Signal;HPM_P1;HPM_P2
2023/01/25 00:00:26;;;;;;;74.13;65.37;;;0.90;99.90;;;;;;4966858;28;20061;-69
2023/01/25 00:02:52;;;;;;;73.17;64.27;;;0.90;99.90;;;;;;4984145;28;20389;-70
2023/01/25 00:05:18;;;;;;;73.27;64.53;;;0.90;99.90;;;;;;4981759;28;20137;-69
2023/01/25 00:07:44;;;;;;;72.77;64.00;;;0.90;99.90;;;;;;4953049;28;20057;-69
2023/01/25 00:10:10;;;;;;;73.03;64.03;;;0.90;99.90;;;;;;4952491;28;20061;-69
2023/01/25 00:12:36;;;;;;;68.87;61.27;;;0.90;99.90;;;;;;4968980;28;20034;-69
2023/01/25 00:15:01;;;;;;;71.03;62.57;;;0.90;99.90;;;;;;4984682;28;20417;-69
2023/01/25 00:17:27;;;;;;;74.23;64.17;;;0.90;99.90;;;;;;4969185;28;20197;-79
2023/01/25 00:19:53;;;;;;;70.60;62.00;;;0.90;99.90;;;;;;4984967;28;21421;-69
2023/01/25 00:22:19;;;;;;;67.67;60.00;;;0.90;99.90;;;;;;4967673;28;20052;-78
2023/01/25 00:24:45;;;;;;;70.87;61.83;;;0.90;99.90;;;;;;4968655;28;20042;-78
2023/01/25 00:27:11;;;;;;;66.57;58.17;;;0.90;99.90;;;;;;4968334;28;20096;-79
2023/01/25 00:29:36;;;;;;;70.13;60.60;;;0.90;99.90;;;;;;4969103;28;20141;-78
2023/01/25 00:32:36;;;;;;;70.40;61.20;;;0.90;99.90;;;;;;4982040;28;20046;-78
2023/01/25 00:35:14;;;;;;;71.03;62.08;;;0.90;99.90;;;;;;4984051;28;20051;-78
2023/01/25 00:38:00;;;;;;;68.20;58.90;;;0.90;99.90;;;;;;4954522;28;20039;-80
2023/01/25 00:40:26;;;;;;;69.07;60.57;;;0.80;99.90;;;;;;4966958;28;20096;-79
2023/01/25 00:42:52;;;;;;;66.97;58.10;;;0.90;99.90;;;;;;4966411;28;20074;-78
2023/01/25 00:45:21;;;;;;;65.07;57.43;;;0.80;99.90;;;;;;4983964;28;20237;-79
2023/01/25 00:47:46;;;;;;;65.07;57.80;;;0.80;99.90;;;;;;4983871;28;20046;-79
2023/01/25 00:50:12;;;;;;;70.37;60.73;;;0.80;99.90;;;;;;4950731;28;20160;-79
2023/01/25 00:52:39;;;;;;;70.43;60.93;;;0.80;99.90;;;;;;4952370;28;20113;-79
2023/01/25 00:55:05;;;;;;;64.03;57.00;;;0.80;99.90;;;;;;4984392;28;20108;-78
2023/01/25 00:57:31;;;;;;;65.43;57.63;;;0.80;99.90;;;;;;4968318;28;20351;-78
2023/01/25 00:59:57;;;;;;;64.27;56.53;;;0.70;99.90;;;;;;4984909;28;20052;-77
2023/01/25 01:02:26;;;;;;;64.80;56.67;;;0.70;99.90;;;;;;4968573;28;20046;-78
2023/01/25 01:04:55;;;;;;;66.70;57.27;;;0.70;99.90;;;;;;4965463;28;20042;-78
2023/01/25 01:07:22;;;;;;;65.17;57.27;;;0.70;99.90;;;;;;4951576;28;20072;-77
2023/01/25 01:09:48;;;;;;;66.63;57.27;;;0.70;99.90;;;;;;4982311;28;20049;-78
2023/01/25 01:12:13;;;;;;;62.00;54.83;;;0.70;99.90;;;;;;4982449;28;20595;-78
2023/01/25 01:14:39;;;;;;;64.97;56.60;;;0.70;99.90;;;;;;4984837;28;20038;-79
2023/01/25 01:17:05;;;;;;;67.63;58.67;;;0.70;99.90;;;;;;4968465;28;20050;-78
2023/01/25 01:19:31;;;;;;;69.03;58.10;;;0.60;99.90;;;;;;4972431;28;20379;-78
2023/01/25 01:21:57;;;;;;;68.90;60.00;;;0.60;99.90;;;;;;4938213;28;20034;-78
2023/01/25 01:24:22;;;;;;;67.03;57.60;;;0.60;99.90;;;;;;4930050;28;20047;-78
2023/01/25 01:26:51;;;;;;;66.93;58.23;;;0.60;99.90;;;;;;4932093;28;20051;-79
2023/01/25 01:29:17;;;;;;;69.70;59.77;;;0.60;99.90;;;;;;4938537;28;20497;-78
2023/01/25 01:31:43;;;;;;;70.07;60.60;;;0.60;99.90;;;;;;4971122;28;20059;-78
2023/01/25 01:34:13;;;;;;;69.40;60.23;;;0.60;99.90;;;;;;4965652;28;20066;-78
2023/01/25 01:36:38;;;;;;;67.57;58.38;;;0.60;99.90;;;;;;4949674;28;20074;-79
2023/01/25 01:39:08;;;;;;;67.63;58.63;;;0.60;99.90;;;;;;4963989;28;20748;-79
2023/01/25 01:41:36;;;;;;;67.50;57.60;;;0.60;99.90;;;;;;4960726;28;20046;-78
2023/01/25 01:44:03;;;;;;;68.27;60.20;;;0.60;99.90;;;;;;4961435;28;20536;-78
2023/01/25 01:46:36;;;;;;;68.80;58.67;;;0.60;99.90;;;;;;4927738;28;20073;-79
2023/01/25 01:49:28;;;;;;;68.03;58.77;;;0.60;99.90;;;;;;4971813;28;20037;-78
2023/01/25 01:52:14;;;;;;;65.97;56.70;;;0.60;99.90;;;;;;4948622;28;20183;-79
2023/01/25 01:54:57;;;;;;;69.03;59.17;;;0.60;99.90;;;;;;4959884;28;20054;-78
2023/01/25 01:57:43;;;;;;;72.67;61.37;;;0.60;99.90;;;;;;4942962;28;20049;-78
2023/01/25 02:00:19;;;;;;;69.13;61.53;;;0.60;99.90;;;;;;4961709;28;20869;-78
2023/01/25 02:02:48;;;;;;;72.60;63.80;;;0.60;99.90;;;;;;4964751;28;20136;-78
2023/01/25 02:05:42;;;;;;;70.23;62.27;;;0.60;99.90;;;;;;4959694;28;20468;-79
2023/01/25 02:08:27;;;;;;;72.73;62.70;;;0.60;99.90;;;;;;4951078;28;20328;-78
2023/01/25 02:10:52;;;;;;;73.23;62.43;;;0.50;99.90;;;;;;4976203;28;20085;-78
2023/01/25 02:13:19;;;;;;;71.63;62.03;;;0.60;99.90;;;;;;4943516;28;20493;-77
2023/01/25 02:15:50;;;;;;;72.00;62.10;;;0.40;99.90;;;;;;4977845;28;20401;-79
2023/01/25 02:18:18;;;;;;;67.73;59.67;;;0.50;99.90;;;;;;4959501;28;20393;-78
2023/01/25 02:20:51;;;;;;;74.10;61.97;;;0.60;99.90;;;;;;4976489;28;20129;-78
2023/01/25 02:23:32;;;;;;;67.97;58.33;;;0.50;99.90;;;;;;4971895;28;20505;-79
2023/01/25 02:26:02;;;;;;;65.80;57.33;;;0.50;99.90;;;;;;4957184;28;20038;-79
2023/01/25 02:28:31;;;;;;;65.90;58.63;;;0.50;99.90;;;;;;4977658;28;20606;-79
2023/01/25 02:30:57;;;;;;;68.57;60.33;;;0.40;99.90;;;;;;4978530;28;20856;-78
2023/01/25 02:33:24;;;;;;;69.80;61.37;;;0.50;99.90;;;;;;4981993;28;20049;-79
2023/01/25 02:36:05;;;;;;;69.87;61.33;;;0.40;99.90;;;;;;4980006;28;20138;-79
2023/01/25 02:38:34;;;;;;;67.37;59.93;;;0.40;99.90;;;;;;4965173;28;20050;-78
2023/01/25 02:41:23;;;;;;;75.97;63.10;;;0.40;99.90;;;;;;4956609;28;20096;-78
2023/01/25 02:43:49;;;;;;;73.77;61.37;;;0.40;99.90;;;;;;4978334;28;20033;-78
2023/01/25 02:46:41;;;;;;;71.50;62.23;;;0.40;99.90;;;;;;4963897;28;20038;-77
2023/01/25 02:49:09;;;;;;;67.70;60.30;;;0.40;99.90;;;;;;4962562;28;20072;-77
2023/01/25 02:51:41;;;;;;;69.03;59.97;;;0.40;99.90;;;;;;4983731;28;20050;-70
2023/01/25 02:54:10;;;;;;;73.80;64.37;;;0.40;99.90;;;;;;4968993;28;20249;-68
2023/01/25 02:56:36;;;;;;;67.90;60.07;;;0.30;99.90;;;;;;4966429;28;20519;-68
2023/01/25 02:59:05;;;;;;;69.47;60.87;;;0.30;99.90;;;;;;4969284;28;20053;-68
2023/01/25 03:01:32;;;;;;;69.53;60.77;;;0.30;99.90;;;;;;4962833;28;20283;-68
2023/01/25 03:03:58;;;;;;;68.70;61.20;;;0.30;99.90;;;;;;4988963;28;20045;-68
2023/01/25 03:06:24;;;;;;;68.60;59.60;;;0.30;99.90;;;;;;4963278;28;20038;-68
2023/01/25 03:08:50;;;;;;;66.70;59.40;;;0.30;99.90;;;;;;4970801;28;20433;-68
2023/01/25 03:11:16;;;;;;;67.13;59.23;;;0.30;99.90;;;;;;4951734;28;20064;-69
2023/01/25 03:13:42;;;;;;;69.47;59.80;;;0.30;99.90;;;;;;4953726;28;20050;-68
2023/01/25 03:16:11;;;;;;;67.67;59.60;;;0.30;99.90;;;;;;4964566;28;20038;-68
2023/01/25 03:18:38;;;;;;;69.90;62.33;;;0.30;99.90;;;;;;4980030;28;20034;-78
2023/01/25 03:21:14;;;;;;;70.60;62.83;;;0.30;99.90;;;;;;4985922;28;20119;-77
2023/01/25 03:23:40;;;;;;;68.90;59.80;;;0.30;99.90;;;;;;4969322;28;20054;-78
2023/01/25 03:26:09;;;;;;;67.53;59.37;;;0.30;99.90;;;;;;4953466;28;20510;-77
2023/01/25 03:28:36;;;;;;;68.67;61.00;;;0.30;99.90;;;;;;4986041;28;20129;-78
2023/01/25 03:31:02;;;;;;;65.70;58.50;;;0.30;99.90;;;;;;4969623;28;20093;-78
2023/01/25 03:33:27;;;;;;;68.93;61.00;;;0.20;99.90;;;;;;4951193;28;20085;-78
2023/01/25 03:35:57;;;;;;;71.53;61.63;;;0.20;99.90;;;;;;4969612;28;20412;-78
2023/01/25 03:38:23;;;;;;;68.40;60.80;;;0.20;99.90;;;;;;4968110;28;20061;-78
2023/01/25 03:40:49;;;;;;;67.53;59.70;;;0.20;99.90;;;;;;4983946;28;20137;-78
2023/01/25 03:43:15;;;;;;;71.63;63.83;;;0.20;99.90;;;;;;4969017;28;20045;-78
2023/01/25 03:45:40;;;;;;;70.67;62.90;;;0.20;99.90;;;;;;4968875;28;20038;-79
2023/01/25 03:48:06;;;;;;;70.40;61.33;;;0.20;99.90;;;;;;4967981;28;20042;-78
2023/01/25 03:50:32;;;;;;;70.47;62.17;;;0.20;99.90;;;;;;4967703;28;20049;-78
2023/01/25 03:53:04;;;;;;;70.17;62.17;;;0.20;99.90;;;;;;4983643;28;20034;-78
2023/01/25 03:55:30;;;;;;;71.47;62.03;;;0.20;99.90;;;;;;4968355;28;20499;-78
2023/01/25 03:57:56;;;;;;;69.53;61.93;;;0.20;99.90;;;;;;4966965;28;20057;-78
2023/01/25 04:00:22;;;;;;;71.03;63.30;;;0.20;99.90;;;;;;4965778;28;20074;-78
2023/01/25 04:02:48;;;;;;;70.67;62.70;;;0.20;99.90;;;;;;4953802;28;20575;-78
2023/01/25 04:05:14;;;;;;;70.77;62.70;;;0.20;99.90;;;;;;4968256;28;20046;-78
2023/01/25 04:07:40;;;;;;;72.20;62.87;;;0.20;99.90;;;;;;4971858;28;20115;-78
2023/01/25 04:10:07;;;;;;;72.20;62.43;;;0.20;99.90;;;;;;4986692;28;20725;-78
2023/01/25 04:12:33;;;;;;;70.63;62.83;;;0.20;99.90;;;;;;4971818;28;20135;-78
2023/01/25 04:14:59;;;;;;;70.63;61.83;;;0.20;99.90;;;;;;4987154;28;20045;-78
2023/01/25 04:17:25;;;;;;;73.63;64.37;;;0.20;99.90;;;;;;4970877;28;20054;-78
2023/01/25 04:19:50;;;;;;;73.03;62.83;;;0.30;99.90;;;;;;4956886;28;20128;-78
2023/01/25 04:22:16;;;;;;;73.67;63.87;;;0.20;99.90;;;;;;4953955;28;20576;-78
2023/01/25 04:24:42;;;;;;;71.27;63.40;;;0.20;99.90;;;;;;4971856;28;20531;-78
2023/01/25 04:27:08;;;;;;;71.37;62.90;;;0.20;99.90;;;;;;4984868;28;20482;-78
2023/01/25 04:29:37;;;;;;;70.30;62.03;;;0.30;99.90;;;;;;4973004;28;20420;-78
2023/01/25 04:32:03;;;;;;;66.23;58.77;;;0.20;99.90;;;;;;4954928;28;20538;-78
2023/01/25 04:34:29;;;;;;;67.87;59.67;;;0.20;99.90;;;;;;4971072;28;20054;-78
2023/01/25 04:36:55;;;;;;;66.87;59.23;;;0.20;99.90;;;;;;4970369;28;20042;-78
2023/01/25 04:39:20;;;;;;;71.57;63.17;;;0.10;99.90;;;;;;4988547;28;20300;-78
2023/01/25 04:41:46;;;;;;;65.20;58.07;;;0.10;99.90;;;;;;4955106;28;20136;-78
2023/01/25 04:44:12;;;;;;;68.73;61.20;;;0.10;99.90;;;;;;4970347;28;20493;-77
2023/01/25 04:46:38;;;;;;;66.63;57.90;;;0.10;99.90;;;;;;4984865;28;20042;-78
2023/01/25 04:49:06;;;;;;;65.33;57.57;;;0.10;99.90;;;;;;4984316;28;20493;-78
2023/01/25 04:51:32;;;;;;;63.90;56.83;;;0.10;99.90;;;;;;4971925;28;20046;-78
2023/01/25 04:53:58;;;;;;;60.57;53.67;;;0.10;99.90;;;;;;4987385;28;20030;-78
2023/01/25 04:56:24;;;;;;;60.83;54.23;;;0.20;99.90;;;;;;4970739;28;20520;-78
2023/01/25 04:58:50;;;;;;;62.67;55.93;;;0.10;99.90;;;;;;4952977;28;20058;-78
2023/01/25 05:01:16;;;;;;;62.77;55.93;;;0.00;99.90;;;;;;4986483;28;20056;-78
2023/01/25 05:03:41;;;;;;;60.37;53.77;;;0.10;99.90;;;;;;4962772;28;20050;-79
2023/01/25 05:06:07;;;;;;;60.73;54.17;;;0.00;99.90;;;;;;4972411;28;20476;-79
2023/01/25 05:08:33;;;;;;;63.07;54.30;;;0.00;99.90;;;;;;4970918;28;20496;-80
2023/01/25 05:10:59;;;;;;;62.23;55.53;;;0.00;99.90;;;;;;4971810;28;20044;-79
2023/01/25 05:13:25;;;;;;;61.67;54.97;;;0.10;99.90;;;;;;4968742;28;20045;-79
2023/01/25 05:15:51;;;;;;;63.13;56.17;;;0.10;99.90;;;;;;4970592;28;20475;-79
2023/01/25 05:18:17;;;;;;;64.23;56.10;;;0.10;99.90;;;;;;4967739;28;20485;-79
2023/01/25 05:20:42;;;;;;;63.87;56.97;;;0.10;99.90;;;;;;4970274;28;20046;-78
2023/01/25 05:23:08;;;;;;;62.60;55.90;;;0.10;99.90;;;;;;4970265;28;20103;-77
2023/01/25 05:28:21;;;;;;;60.63;53.93;;;0.10;99.90;;;;;;4972229;28;20144;-78
2023/01/25 05:30:50;;;;;;;60.80;54.10;;;0.10;99.90;;;;;;4952451;28;20614;-77
2023/01/25 05:33:16;;;;;;;62.63;55.43;;;0.10;99.90;;;;;;4985362;28;20452;-78
2023/01/25 05:35:43;;;;;;;62.07;55.27;;;0.10;99.90;;;;;;4985472;28;20038;-77
2023/01/25 05:38:09;;;;;;;62.37;53.60;;;0.10;99.90;;;;;;4983366;28;20107;-77
2023/01/25 05:40:38;;;;;;;61.63;54.40;;;0.10;99.90;;;;;;4973709;28;20038;-78
2023/01/25 05:43:04;;;;;;;63.50;55.13;;;0.10;99.90;;;;;;4970433;28;20064;-77
2023/01/25 05:45:33;;;;;;;64.73;55.27;;;0.00;99.90;;;;;;4968553;28;20379;-77
2023/01/25 05:47:59;;;;;;;63.13;54.83;;;0.10;99.90;;;;;;4985285;28;20045;-78
2023/01/25 05:50:25;;;;;;;60.30;53.03;;;0.10;99.90;;;;;;4968362;28;20061;-77
2023/01/25 05:52:51;;;;;;;62.47;53.63;;;0.00;99.90;;;;;;4985477;28;20058;-77
2023/01/25 05:55:17;;;;;;;64.23;55.43;;;0.00;99.90;;;;;;4984593;28;20657;-77
2023/01/25 05:57:43;;;;;;;59.40;51.53;;;0.00;99.90;;;;;;4964854;28;20093;-78
2023/01/25 06:00:09;;;;;;;61.83;54.03;;;0.00;99.90;;;;;;4970592;28;20100;-78
2023/01/25 06:02:35;;;;;;;66.43;55.80;;;0.00;99.90;;;;;;4979843;28;20324;-77
2023/01/25 06:05:05;;;;;;;65.80;55.73;;;0.00;99.90;;;;;;4952353;28;21217;-77
2023/01/25 06:07:35;;;;;;;67.50;56.73;;;0.00;99.90;;;;;;4938124;28;20132;-77
2023/01/25 06:10:02;;;;;;;64.55;54.85;;;0.00;99.90;;;;;;4964175;28;20049;-77
2023/01/25 06:12:28;;;;;;;63.87;54.60;;;0.00;99.90;;;;;;4984317;28;20515;-78
2023/01/25 06:14:53;;;;;;;67.60;56.47;;;0.00;99.90;;;;;;4983025;28;20042;-77
2023/01/25 06:17:19;;;;;;;65.53;57.00;;;0.00;99.90;;;;;;4953718;28;20400;-78
2023/01/25 06:19:45;;;;;;;69.50;58.80;;;0.00;99.90;;;;;;4985763;28;20041;-78
2023/01/25 06:22:11;;;;;;;64.47;55.77;;;0.00;99.90;;;;;;4970741;28;20046;-79
2023/01/25 06:24:37;;;;;;;64.73;56.23;;;0.00;99.90;;;;;;4954583;28;20077;-78
2023/01/25 06:27:02;;;;;;;68.43;57.97;;;0.00;99.90;;;;;;4966399;28;20511;-78
2023/01/25 06:29:28;;;;;;;69.17;57.77;;;0.00;99.90;;;;;;4984020;28;20825;-78
2023/01/25 06:31:54;;;;;;;67.93;57.00;;;0.00;99.90;;;;;;4948597;28;20052;-78
2023/01/25 06:34:21;;;;;;;68.10;56.57;;;0.00;99.90;;;;;;4964436;28;20097;-78
2023/01/25 06:36:47;;;;;;;68.20;56.80;;;0.00;99.90;;;;;;4966758;28;20077;-78
2023/01/25 06:39:13;;;;;;;68.93;56.20;;;0.00;99.90;;;;;;4966920;28;20071;-77
2023/01/25 06:41:39;;;;;;;69.17;57.47;;;0.00;99.90;;;;;;4948103;28;20043;-78
2023/01/25 06:44:08;;;;;;;65.60;56.47;;;0.00;99.90;;;;;;4964735;28;20448;-78
2023/01/25 06:46:34;;;;;;;62.70;52.87;;;0.00;99.90;;;;;;4966831;28;20042;-80
2023/01/25 06:49:00;;;;;;;67.57;55.97;;;-0.10;99.90;;;;;;4965901;28;20046;-79
2023/01/25 06:51:26;;;;;;;68.37;56.27;;;0.00;99.90;;;;;;4966051;28;20472;-77
2023/01/25 06:53:51;;;;;;;67.30;55.43;;;0.00;99.90;;;;;;4951599;28;20046;-77
2023/01/25 06:56:23;;;;;;;68.83;57.20;;;0.00;99.90;;;;;;4964562;28;20074;-79
2023/01/25 06:58:49;;;;;;;68.53;56.53;;;0.10;99.90;;;;;;4966205;28;20051;-79
2023/01/25 07:01:20;;;;;;;67.33;56.13;;;-0.10;99.90;;;;;;4998529;28;20050;-78
2023/01/25 07:03:51;;;;;;;70.37;58.17;;;0.00;99.90;;;;;;4981173;28;20050;-78
2023/01/25 07:06:18;;;;;;;67.60;56.33;;;-0.10;99.90;;;;;;4978535;28;20039;-78
2023/01/25 07:08:43;;;;;;;66.37;55.30;;;0.00;99.90;;;;;;4983234;28;20067;-78
2023/01/25 07:11:12;;;;;;;73.90;60.40;;;-0.10;99.90;;;;;;4948783;28;20046;-77
2023/01/25 07:13:40;;;;;;;67.87;56.17;;;-0.10;99.90;;;;;;4964831;28;20742;-78
2023/01/25 07:16:07;;;;;;;69.53;58.07;;;-0.10;99.90;;;;;;4981746;28;20042;-78
2023/01/25 07:18:36;;;;;;;66.43;56.63;;;-0.10;99.90;;;;;;4982511;28;20109;-78
2023/01/25 07:21:04;;;;;;;68.33;57.37;;;-0.10;99.90;;;;;;4978380;28;20038;-79
2023/01/25 07:23:31;;;;;;;67.13;56.70;;;-0.10;99.90;;;;;;4962930;28;20046;-78
2023/01/25 07:25:57;;;;;;;70.47;57.93;;;0.00;99.90;;;;;;4965923;28;20039;-78
2023/01/25 07:28:24;;;;;;;68.27;57.33;;;-0.10;99.90;;;;;;4960858;28;20082;-77
2023/01/25 07:30:50;;;;;;;69.23;56.97;;;0.00;99.90;;;;;;4967542;28;20042;-80
2023/01/25 07:33:16;;;;;;;67.17;56.63;;;0.00;99.90;;;;;;4963893;28;20129;-75
2023/01/25 07:35:42;;;;;;;68.23;57.47;;;-0.10;99.90;;;;;;4984095;28;20046;-75
2023/01/25 07:38:08;;;;;;;70.83;58.83;;;0.00;99.90;;;;;;4984940;28;20061;-76
2023/01/25 07:40:34;;;;;;;74.43;60.37;;;-0.10;99.90;;;;;;4985203;28;20493;-76
2023/01/25 07:43:00;;;;;;;74.27;61.90;;;-0.10;99.90;;;;;;4988537;28;20164;-73
2023/01/25 07:45:29;;;;;;;71.23;58.47;;;-0.10;99.90;;;;;;4974046;28;20061;-74
2023/01/25 07:47:58;;;;;;;66.90;57.33;;;0.00;99.90;;;;;;4988217;28;20064;-74
2023/01/25 07:50:28;;;;;;;69.85;56.05;;;0.00;99.90;;;;;;4968945;28;20053;-74
2023/01/25 07:52:54;;;;;;;68.77;56.57;;;0.00;99.90;;;;;;4971706;28;20514;-73
2023/01/25 07:55:20;;;;;;;65.00;53.87;;;0.00;99.90;;;;;;4990200;28;20045;-74
2023/01/25 07:57:46;;;;;;;67.17;54.40;;;0.00;99.90;;;;;;4972973;28;20045;-74
2023/01/25 08:00:13;;;;;;;67.63;54.17;;;0.00;99.90;;;;;;4971589;28;20030;-74
2023/01/25 08:02:39;;;;;;;65.07;53.57;;;0.00;99.90;;;;;;4955528;28;20057;-74
2023/01/25 08:05:05;;;;;;;69.40;56.30;;;-0.10;99.90;;;;;;4957783;28;20069;-74
2023/01/25 08:07:32;;;;;;;69.70;55.33;;;-0.10;99.90;;;;;;4973006;28;20077;-74
2023/01/25 08:09:58;;;;;;;67.73;54.37;;;0.00;99.90;;;;;;4990416;28;20053;-74
2023/01/25 08:12:26;;;;;;;72.53;57.33;;;-0.10;99.90;;;;;;4971850;28;20046;-74
2023/01/25 08:14:52;;;;;;;72.33;56.57;;;-0.10;99.90;;;;;;4958465;28;20875;-75
2023/01/25 08:17:18;;;;;;;71.63;56.80;;;-0.10;99.90;;;;;;4972223;28;20157;-71
2023/01/25 08:19:44;;;;;;;76.93;57.77;;;-0.10;99.90;;;;;;4957828;28;20164;-74
2023/01/25 08:22:11;;;;;;;70.40;56.47;;;-0.10;99.90;;;;;;4958267;28;20038;-74
2023/01/25 08:24:37;;;;;;;74.07;56.47;;;-0.10;99.90;;;;;;4985019;28;20405;-74
2023/01/25 08:27:03;;;;;;;73.20;59.27;;;-0.10;99.90;;;;;;4990710;28;20038;-74
2023/01/25 08:29:29;;;;;;;77.73;60.87;;;0.00;99.90;;;;;;4969454;28;20042;-74
2023/01/25 08:31:55;;;;;;;72.97;57.67;;;0.00;99.90;;;;;;4971136;28;20173;-74
2023/01/25 08:34:20;;;;;;;75.80;59.43;;;0.00;99.90;;;;;;4971860;28;20133;-74
2023/01/25 08:36:46;;;;;;;79.37;60.73;;;0.00;99.90;;;;;;4954217;28;20046;-74
2023/01/25 08:39:16;;;;;;;77.60;60.30;;;0.00;99.90;;;;;;4969938;28;20128;-74
2023/01/25 08:41:44;;;;;;;79.18;59.67;;;0.10;99.90;;;;;;4987678;28;20216;-74
2023/01/25 08:44:10;;;;;;;72.47;57.57;;;0.10;99.90;;;;;;4968387;28;20061;-74
2023/01/25 08:46:36;;;;;;;78.77;58.33;;;0.10;99.90;;;;;;4972768;28;20142;-74
2023/01/25 08:49:03;;;;;;;77.07;58.73;;;0.10;99.90;;;;;;4970899;28;20178;-72
2023/01/25 08:51:30;;;;;;;73.17;57.40;;;0.10;99.90;;;;;;4957451;28;20065;-71
2023/01/25 08:53:56;;;;;;;75.77;58.50;;;0.10;99.90;;;;;;4971535;28;20099;-71
2023/01/25 08:56:22;;;;;;;79.73;61.13;;;0.10;99.90;;;;;;4969277;28;20361;-71
2023/01/25 08:58:49;;;;;;;78.37;59.97;;;0.10;99.90;;;;;;4970464;28;20049;-71
2023/01/25 09:01:17;;;;;;;74.63;58.10;;;0.10;99.90;;;;;;4988368;28;20042;-71
2023/01/25 09:03:45;;;;;;;78.33;59.97;;;0.10;99.90;;;;;;4969046;28;20132;-73
2023/01/25 09:06:12;;;;;;;79.53;59.10;;;0.00;99.90;;;;;;4987065;28;20353;-73
2023/01/25 09:08:39;;;;;;;79.13;57.33;;;0.10;99.90;;;;;;4969514;28;20420;-74
2023/01/25 09:11:11;;;;;;;75.53;56.07;;;0.10;99.90;;;;;;4987264;28;20030;-73
2023/01/25 09:13:37;;;;;;;74.10;54.63;;;0.10;99.90;;;;;;4986827;28;20049;-76
2023/01/25 09:16:05;;;;;;;73.07;54.83;;;0.00;99.90;;;;;;4972204;28;20103;-76
2023/01/25 09:18:33;;;;;;;78.10;57.63;;;0.00;99.90;;;;;;4970343;28;20084;-76
2023/01/25 09:21:08;;;;;;;74.87;55.30;;;0.00;99.90;;;;;;4970377;28;20480;-75
2023/01/25 09:23:35;;;;;;;73.80;54.93;;;0.00;99.90;;;;;;4971302;28;20054;-74
2023/01/25 09:26:04;;;;;;;73.47;55.73;;;0.00;99.90;;;;;;4985930;28;20030;-74
2023/01/25 09:28:32;;;;;;;77.60;56.77;;;0.00;99.90;;;;;;4984140;28;20071;-74
2023/01/25 09:31:06;;;;;;;80.57;57.47;;;0.00;99.90;;;;;;4971386;28;20042;-74
2023/01/25 09:33:34;;;;;;;74.07;54.17;;;0.00;99.90;;;;;;4964796;28;20124;-74
2023/01/25 09:36:01;;;;;;;72.70;52.93;;;0.10;99.90;;;;;;4984412;28;20046;-73
2023/01/25 09:38:27;;;;;;;71.60;54.00;;;0.10;99.90;;;;;;4966211;28;20074;-74
2023/01/25 09:41:24;;;;;;;74.73;54.63;;;0.00;99.90;;;;;;4968302;28;20050;-76
2023/01/25 09:44:28;;;;;;;74.17;55.23;;;0.00;99.90;;;;;;4982178;28;20042;-75
2023/01/25 09:47:43;;;;;;;78.10;56.70;;;0.00;99.90;;;;;;4983294;28;20030;-74
2023/01/25 09:50:30;;;;;;;74.23;54.73;;;-0.10;99.90;;;;;;4978920;28;20109;-73
2023/01/25 09:53:08;;;;;;;79.33;56.13;;;0.00;99.90;;;;;;4967177;28;20042;-71
2023/01/25 09:55:35;;;;;;;75.87;55.47;;;0.00;99.90;;;;;;4967155;28;20046;-71
2023/01/25 09:58:03;;;;;;;77.33;54.63;;;0.00;99.90;;;;;;4969779;28;20062;-73
2023/01/25 10:00:36;;;;;;;78.43;54.87;;;0.10;99.90;;;;;;4981283;28;20496;-71
2023/01/25 10:03:21;;;;;;;77.07;55.30;;;0.00;99.90;;;;;;4967845;28;20382;-71
2023/01/25 10:05:50;;;;;;;80.87;55.83;;;0.00;99.90;;;;;;4968844;28;20049;-71
2023/01/25 10:08:24;;;;;;;75.43;55.23;;;0.00;99.90;;;;;;4984286;28;20039;-71
2023/01/25 10:10:58;;;;;;;79.10;56.10;;;0.00;99.90;;;;;;4969430;28;20046;-74
2023/01/25 10:13:30;;;;;;;77.57;57.57;;;0.00;99.90;;;;;;4981410;28;20238;-76
2023/01/25 10:16:25;;;;;;;80.13;57.40;;;0.10;99.90;;;;;;4983324;28;20149;-74
2023/01/25 10:19:24;;;;;;;74.57;56.37;;;0.00;99.90;;;;;;4968553;28;20090;-76
2023/01/25 10:22:05;;;;;;;77.33;57.17;;;0.10;99.90;;;;;;4964808;28;20047;-74
2023/01/25 10:25:10;;;;;;;83.70;57.53;;;0.10;99.90;;;;;;4964980;28;20058;-75
2023/01/25 10:27:48;;;;;;;78.03;55.23;;;0.10;99.90;;;;;;4981330;28;20103;-75
2023/01/25 10:30:47;;;;;;;73.97;53.00;;;0.10;99.90;;;;;;4983506;28;20083;-74
2023/01/25 10:33:17;;;;;;;74.50;53.63;;;0.10;99.90;;;;;;4945994;28;20413;-74
2023/01/25 10:35:44;;;;;;;75.13;53.77;;;0.00;99.90;;;;;;4980889;28;20078;-75
2023/01/25 10:38:23;;;;;;;71.30;52.27;;;-0.10;99.90;;;;;;4980838;28;20073;-76
2023/01/25 10:40:57;;;;;;;72.33;52.03;;;0.00;99.90;;;;;;4966804;28;20105;-74
2023/01/25 10:43:23;;;;;;;68.57;50.03;;;0.00;99.90;;;;;;4983022;28;20035;-76
2023/01/25 10:45:50;;;;;;;74.73;53.67;;;0.00;99.90;;;;;;4950026;28;20524;-75
2023/01/25 10:48:36;;;;;;;74.27;52.67;;;0.00;99.90;;;;;;4967409;28;20434;-74
2023/01/25 10:51:02;;;;;;;76.70;53.80;;;0.00;99.90;;;;;;4965553;28;20416;-74
2023/01/25 10:53:34;;;;;;;72.00;49.47;;;0.00;99.90;;;;;;4947225;28;20046;-75
2023/01/25 10:56:10;;;;;;;66.90;46.63;;;0.00;99.90;;;;;;4982762;28;20042;-74
2023/01/25 10:58:42;;;;;;;70.83;48.50;;;0.00;99.90;;;;;;4980081;28;20405;-74
2023/01/25 11:01:26;;;;;;;67.23;46.53;;;0.00;99.90;;;;;;4983815;28;20718;-74
2023/01/25 11:03:52;;;;;;;74.50;49.60;;;0.00;99.90;;;;;;4983109;28;20125;-74
2023/01/25 11:06:28;;;;;;;74.23;50.50;;;-0.10;99.90;;;;;;4984211;28;20117;-74
2023/01/25 11:08:53;;;;;;;73.20;50.27;;;0.00;99.90;;;;;;4981245;28;20125;-76
2023/01/25 11:11:37;;;;;;;79.83;51.67;;;-0.10;99.90;;;;;;4950237;28;20513;-74
2023/01/25 11:14:17;;;;;;;88.17;53.17;;;-0.10;99.90;;;;;;4985368;28;20039;-73
2023/01/25 11:16:48;;;;;;;89.75;53.10;;;0.00;99.90;;;;;;4983249;28;20428;-74
2023/01/25 11:19:40;;;;;;;80.97;51.13;;;0.00;99.90;;;;;;4987752;28;20069;-74
2023/01/25 11:22:22;;;;;;;83.90;50.20;;;0.00;99.90;;;;;;4980347;28;20065;-74
2023/01/25 11:24:48;;;;;;;90.47;53.77;;;0.00;99.90;;;;;;4984103;28;20125;-74
2023/01/25 11:27:17;;;;;;;84.67;51.97;;;0.00;99.90;;;;;;4969193;28;20113;-75
2023/01/25 11:29:45;;;;;;;75.10;48.87;;;0.00;99.90;;;;;;4985479;28;20204;-74
2023/01/25 11:32:23;;;;;;;82.43;49.47;;;0.00;99.90;;;;;;4970797;28;20051;-74
2023/01/25 11:34:50;;;;;;;77.43;49.93;;;0.00;99.90;;;;;;4958329;28;20590;-75
2023/01/25 11:37:36;;;;;;;85.40;53.40;;;0.00;99.90;;;;;;4969803;28;20050;-74
2023/01/25 11:40:36;;;;;;;85.10;51.83;;;0.00;99.90;;;;;;4985612;28;20061;-74
2023/01/25 11:43:18;;;;;;;85.10;50.10;;;0.00;99.90;;;;;;4984271;28;20437;-74
2023/01/25 11:46:01;;;;;;;86.40;52.50;;;-0.10;99.90;;;;;;4967135;28;20038;-74
2023/01/25 11:48:45;;;;;;;90.73;53.90;;;-0.10;99.90;;;;;;4971098;28;20129;-74
2023/01/25 11:51:26;;;;;;;94.20;54.37;;;0.00;99.90;;;;;;4967104;28;20046;-74
2023/01/25 11:54:06;;;;;;;96.47;53.67;;;0.00;99.90;;;;;;4985714;28;20045;-75
2023/01/25 11:56:47;;;;;;;96.43;55.13;;;0.00;99.90;;;;;;4984512;28;20137;-75
2023/01/25 11:59:25;;;;;;;90.90;53.70;;;0.00;99.90;;;;;;4968260;28;20050;-75
2023/01/25 12:02:05;;;;;;;97.40;54.93;;;0.00;99.90;;;;;;4985494;28;20133;-74
2023/01/25 12:04:50;;;;;;;96.20;53.30;;;0.10;99.90;;;;;;4985005;28;20069;-75
2023/01/25 12:07:39;;;;;;;103.87;56.93;;;0.10;99.90;;;;;;4969311;28;20459;-74
2023/01/25 12:10:24;;;;;;;96.43;55.47;;;0.10;99.90;;;;;;4984685;28;20117;-74
2023/01/25 12:13:10;;;;;;;92.10;56.70;;;0.10;99.90;;;;;;4986055;28;20405;-74
2023/01/25 12:15:57;;;;;;;96.23;54.47;;;0.10;99.90;;;;;;4974945;28;20054;-74
2023/01/25 12:18:44;;;;;;;90.13;51.63;;;0.20;99.90;;;;;;4984868;28;20052;-74
2023/01/25 12:21:47;;;;;;;85.60;51.93;;;0.10;99.90;;;;;;4983709;28;20532;-72
2023/01/25 12:24:28;;;;;;;87.40;52.03;;;0.20;99.90;;;;;;4985666;28;20045;-72
2023/01/25 12:27:19;;;;;;;88.63;51.83;;;0.10;99.90;;;;;;4984769;28;20041;-71
2023/01/25 12:30:01;;;;;;;92.13;52.53;;;0.10;99.90;;;;;;4982802;28;20080;-74
2023/01/25 12:32:39;;;;;;;96.67;54.80;;;0.10;99.90;;;;;;4984874;28;20054;-74
2023/01/25 12:35:24;;;;;;;92.77;51.90;;;0.10;99.90;;;;;;4982703;28;20121;-74
2023/01/25 12:37:55;;;;;;;102.67;54.70;;;0.10;99.90;;;;;;4984538;28;20053;-74
2023/01/25 12:40:49;;;;;;;95.50;53.37;;;0.20;99.90;;;;;;4969128;28;20065;-74
2023/01/25 12:43:32;;;;;;;97.87;53.03;;;0.20;99.90;;;;;;4971538;28;20521;-74
2023/01/25 12:46:00;;;;;;;92.63;52.67;;;0.10;99.90;;;;;;4967219;28;20050;-75
2023/01/25 12:48:31;;;;;;;86.17;49.83;;;0.20;99.90;;;;;;4986398;28;20085;-75
2023/01/25 12:50:58;;;;;;;89.60;53.27;;;0.20;99.90;;;;;;4981531;28;20111;-75
2023/01/25 12:53:41;;;;;;;100.57;54.07;;;0.20;99.90;;;;;;4984454;28;20065;-74
2023/01/25 12:56:12;;;;;;;99.60;54.10;;;0.20;99.90;;;;;;4966804;28;20050;-74